Time;durP1;ratioP1;P1;durP2;ratioP2;P2;SDS_P1;SDS_P2;PMS_P1;PMS_P2;Temp;Humidity;BMP_temperature;BMP_pressure;BME280_temperature;BME280_humidity;BME280_pressure;Samples;Min_cycle;Max_cycle;Signal;HPM_P1;HPM_P2
2022/07/20 00:00:10;;;;;;;9.13;3.77;;;25.40;49.70;;;;;;5023057;28;20469;-77
2022/07/20 00:02:38;;;;;;;10.53;4.50;;;25.40;49.80;;;;;;5024492;28;20470;-80
2022/07/20 00:05:06;;;;;;;9.30;4.67;;;25.30;49.80;;;;;;5025993;28;20448;-80
2022/07/20 00:07:35;;;;;;;11.17;3.93;;;25.30;49.90;;;;;;5023038;28;21420;-80
2022/07/20 00:12:50;;;;;;;9.07;3.60;;;25.30;50.00;;;;;;5029164;28;20451;-77
2022/07/20 00:15:18;;;;;;;12.93;4.67;;;25.30;50.00;;;;;;5020330;28;20469;-77
2022/07/20 00:17:46;;;;;;;7.03;3.70;;;25.40;50.00;;;;;;5029504;28;20470;-79
2022/07/20 00:20:14;;;;;;;13.07;4.07;;;25.40;50.00;;;;;;5005423;28;20463;-79
2022/07/20 00:22:42;;;;;;;9.30;3.97;;;25.40;50.00;;;;;;5027224;28;20574;-79
2022/07/20 00:25:10;;;;;;;7.53;3.97;;;25.40;50.00;;;;;;5030718;28;20446;-79
2022/07/20 00:27:38;;;;;;;7.90;3.67;;;25.50;50.00;;;;;;5035463;28;20485;-80
2022/07/20 00:30:10;;;;;;;6.90;4.00;;;25.50;50.00;;;;;;5033266;28;20468;-77
2022/07/20 00:32:38;;;;;;;8.23;4.03;;;25.50;49.90;;;;;;5010256;28;20518;-78
2022/07/20 00:35:08;;;;;;;10.33;3.70;;;25.60;49.90;;;;;;5033626;28;20508;-77
2022/07/20 00:37:39;;;;;;;9.87;3.73;;;25.60;49.90;;;;;;5031520;28;20512;-77
2022/07/20 00:40:09;;;;;;;7.53;3.40;;;25.60;49.80;;;;;;5031390;28;20441;-77
2022/07/20 00:42:38;;;;;;;6.73;4.20;;;25.70;49.70;;;;;;5030524;28;20464;-79
2022/07/20 00:45:09;;;;;;;8.67;4.27;;;25.80;49.70;;;;;;5025173;28;20452;-78
2022/07/20 00:47:37;;;;;;;7.70;3.53;;;25.80;49.60;;;;;;5011780;28;20866;-78
2022/07/20 00:50:08;;;;;;;8.57;3.90;;;25.80;49.50;;;;;;5025471;28;20476;-78
2022/07/20 00:52:36;;;;;;;7.20;3.47;;;25.80;49.50;;;;;;5021954;28;20572;-78
2022/07/20 00:55:05;;;;;;;6.17;3.13;;;25.80;49.50;;;;;;5008139;28;20463;-77
2022/07/20 00:57:33;;;;;;;8.90;3.70;;;25.80;49.50;;;;;;5011150;28;20486;-77
2022/07/20 01:00:01;;;;;;;9.30;4.40;;;25.70;49.50;;;;;;5019578;28;20462;-77
2022/07/20 01:02:30;;;;;;;8.77;3.90;;;25.70;49.50;;;;;;5008041;28;20480;-77
2022/07/20 01:04:58;;;;;;;12.77;3.63;;;25.60;49.60;;;;;;5019231;28;21004;-77
2022/07/20 01:07:26;;;;;;;10.53;4.50;;;25.60;49.70;;;;;;5022332;28;20480;-77
2022/07/20 01:09:54;;;;;;;7.43;3.53;;;25.60;49.70;;;;;;5023047;28;20463;-77
2022/07/20 01:12:22;;;;;;;7.37;3.97;;;25.50;49.80;;;;;;5020502;28;20483;-76
2022/07/20 01:14:54;;;;;;;9.07;3.90;;;25.50;49.80;;;;;;5023310;28;20448;-76
2022/07/20 01:17:22;;;;;;;7.83;3.93;;;25.50;49.90;;;;;;5001258;28;20507;-77
2022/07/20 01:19:52;;;;;;;11.33;4.10;;;25.40;49.90;;;;;;5022056;28;21479;-77
2022/07/20 01:22:21;;;;;;;7.07;3.67;;;25.40;50.00;;;;;;5023543;28;20453;-77
2022/07/20 01:24:49;;;;;;;8.33;3.43;;;25.40;50.10;;;;;;5024318;28;20466;-77
2022/07/20 01:27:17;;;;;;;10.10;4.30;;;25.50;50.10;;;;;;5011525;28;20585;-78
2022/07/20 01:29:45;;;;;;;11.87;4.00;;;25.40;50.10;;;;;;5024151;28;20464;-79
2022/07/20 01:32:13;;;;;;;7.87;4.70;;;25.40;50.30;;;;;;5022982;28;20491;-78
2022/07/20 01:34:41;;;;;;;8.50;4.50;;;25.30;50.40;;;;;;5023864;28;21033;-78
2022/07/20 01:37:09;;;;;;;8.50;4.07;;;25.20;50.50;;;;;;5024865;28;21017;-79
2022/07/20 01:39:38;;;;;;;7.27;4.00;;;25.00;50.70;;;;;;5018359;28;20461;-78
2022/07/20 01:42:06;;;;;;;10.47;3.97;;;25.00;50.90;;;;;;5013649;28;20454;-78
2022/07/20 01:44:34;;;;;;;8.47;4.30;;;24.90;51.10;;;;;;5020835;28;20466;-77
2022/07/20 01:47:02;;;;;;;8.80;4.90;;;24.80;51.30;;;;;;5021297;28;20470;-78
2022/07/20 01:49:30;;;;;;;7.63;4.40;;;24.70;51.40;;;;;;4985182;28;1060306;-78
2022/07/20 01:52:00;;;;;;;11.30;3.90;;;24.70;51.60;;;;;;5013688;28;20215;-79
2022/07/20 01:54:28;;;;;;;10.13;4.20;;;24.70;51.70;;;;;;5023009;28;20469;-78
2022/07/20 01:56:58;;;;;;;6.23;3.83;;;24.70;51.80;;;;;;5024593;28;20483;-79
2022/07/20 01:59:26;;;;;;;7.13;4.07;;;24.70;51.90;;;;;;5025889;28;20463;-79
2022/07/20 02:01:54;;;;;;;6.63;3.90;;;24.60;52.00;;;;;;5024144;28;20468;-79
2022/07/20 02:04:22;;;;;;;9.03;4.17;;;24.60;52.10;;;;;;5020890;28;20465;-78
2022/07/20 02:06:50;;;;;;;7.53;3.90;;;24.60;52.20;;;;;;5023580;28;20478;-78
2022/07/20 02:09:18;;;;;;;8.67;4.20;;;24.60;52.30;;;;;;5021448;28;20459;-78
2022/07/20 02:11:46;;;;;;;7.77;4.50;;;24.50;52.40;;;;;;5017785;28;20493;-79
2022/07/20 02:14:15;;;;;;;9.83;4.50;;;24.50;52.40;;;;;;5022928;28;20464;-79
2022/07/20 02:16:43;;;;;;;8.50;4.37;;;24.50;52.50;;;;;;5008075;28;20504;-80
2022/07/20 02:19:11;;;;;;;8.80;4.20;;;24.40;52.50;;;;;;5025100;28;20532;-79
2022/07/20 02:21:39;;;;;;;10.40;4.27;;;24.40;52.70;;;;;;5024456;28;20483;-79
2022/07/20 02:24:08;;;;;;;11.90;4.50;;;24.40;52.80;;;;;;5022215;28;20471;-79
2022/07/20 02:26:36;;;;;;;8.90;4.37;;;24.30;52.80;;;;;;5022720;28;20972;-79
2022/07/20 02:29:04;;;;;;;8.47;3.50;;;24.30;52.90;;;;;;5024248;28;20470;-80
2022/07/20 02:31:33;;;;;;;10.10;4.03;;;24.30;52.90;;;;;;5018715;28;20475;-79
2022/07/20 02:34:57;;;;;;;7.57;3.70;;;24.30;53.00;;;;;;5018067;28;20464;-79
2022/07/20 02:37:25;;;;;;;8.73;4.57;;;24.30;53.10;;;;;;5021360;28;20477;-79
2022/07/20 02:39:53;;;;;;;14.13;4.03;;;24.20;53.10;;;;;;5019827;28;20455;-80
2022/07/20 02:42:21;;;;;;;10.27;4.00;;;24.20;53.10;;;;;;5022543;28;20448;-79
2022/07/20 02:44:49;;;;;;;9.40;4.37;;;24.10;53.20;;;;;;5025814;28;20455;-79
2022/07/20 02:47:18;;;;;;;8.60;4.10;;;24.10;53.20;;;;;;5022148;28;20492;-79
2022/07/20 02:49:46;;;;;;;12.27;4.77;;;24.00;53.30;;;;;;5008355;28;20989;-79
2022/07/20 02:52:14;;;;;;;7.57;4.40;;;24.00;53.30;;;;;;5022594;28;20483;-79
2022/07/20 02:54:42;;;;;;;10.30;4.03;;;23.90;53.40;;;;;;5022594;28;20807;-79
2022/07/20 02:57:10;;;;;;;7.70;4.40;;;23.90;53.50;;;;;;5021256;28;20508;-79
2022/07/20 02:59:38;;;;;;;7.70;4.30;;;23.90;53.60;;;;;;5027513;28;20841;-79
2022/07/20 03:02:06;;;;;;;8.23;4.43;;;23.80;53.60;;;;;;5015824;28;21044;-79
2022/07/20 03:04:35;;;;;;;9.00;4.60;;;23.80;53.70;;;;;;5021936;28;21297;-80
2022/07/20 03:07:03;;;;;;;7.43;3.23;;;23.80;53.70;;;;;;5027991;28;20476;-78
2022/07/20 03:09:31;;;;;;;11.10;4.17;;;23.70;53.80;;;;;;5027085;28;20471;-78
2022/07/20 03:11:59;;;;;;;9.80;3.97;;;23.60;53.90;;;;;;5023144;28;20465;-78
2022/07/20 03:14:27;;;;;;;7.60;4.03;;;23.60;53.90;;;;;;5021988;28;20503;-78
2022/07/20 03:16:55;;;;;;;9.83;4.33;;;23.50;54.00;;;;;;5021632;28;20486;-78
2022/07/20 03:19:23;;;;;;;7.27;4.33;;;23.50;54.20;;;;;;5021880;28;20501;-78
2022/07/20 03:21:53;;;;;;;10.63;4.90;;;23.40;54.40;;;;;;5022889;28;20471;-78
2022/07/20 03:24:21;;;;;;;6.43;3.73;;;23.40;54.50;;;;;;5018326;28;20833;-78
2022/07/20 03:26:49;;;;;;;9.63;4.50;;;23.30;54.50;;;;;;5018672;28;20501;-78
2022/07/20 03:29:17;;;;;;;8.10;4.30;;;23.20;54.50;;;;;;5018170;28;20871;-79
2022/07/20 03:31:45;;;;;;;10.20;5.10;;;23.20;54.60;;;;;;5019737;28;20493;-78
2022/07/20 03:34:13;;;;;;;8.50;4.77;;;23.20;54.70;;;;;;5018353;28;20905;-78
2022/07/20 03:36:41;;;;;;;7.57;4.07;;;23.20;54.80;;;;;;5020733;28;20490;-79
2022/07/20 03:39:10;;;;;;;8.70;4.57;;;23.10;54.90;;;;;;5019132;28;20550;-79
2022/07/20 03:41:38;;;;;;;9.37;4.93;;;23.00;54.90;;;;;;5020497;28;20506;-79
2022/07/20 03:44:06;;;;;;;10.80;4.57;;;23.00;55.00;;;;;;5022614;28;20571;-79
2022/07/20 03:46:34;;;;;;;8.07;4.53;;;23.00;55.10;;;;;;5027665;28;20494;-78
2022/07/20 03:49:02;;;;;;;9.30;3.60;;;22.90;55.00;;;;;;5017808;28;21347;-78
2022/07/20 03:51:31;;;;;;;8.20;4.07;;;22.80;55.10;;;;;;5005451;28;20554;-78
2022/07/20 03:53:59;;;;;;;9.13;4.47;;;22.80;55.20;;;;;;5022751;28;20488;-78
2022/07/20 03:56:30;;;;;;;8.00;4.27;;;22.70;55.30;;;;;;5022314;28;20481;-78
2022/07/20 03:58:58;;;;;;;12.10;4.20;;;22.60;55.40;;;;;;5021985;28;20482;-79
2022/07/20 04:01:26;;;;;;;8.50;4.27;;;22.60;55.50;;;;;;5020374;28;20494;-79
2022/07/20 04:03:54;;;;;;;10.00;4.80;;;22.50;55.70;;;;;;5018836;28;20452;-79
2022/07/20 04:06:22;;;;;;;9.83;4.23;;;22.50;55.70;;;;;;5021857;28;20555;-79
2022/07/20 04:08:50;;;;;;;9.47;4.10;;;22.40;55.70;;;;;;5029877;28;20477;-78
2022/07/20 04:11:19;;;;;;;9.60;4.37;;;22.30;55.70;;;;;;5021267;28;20475;-78
2022/07/20 04:13:48;;;;;;;8.80;5.03;;;22.30;55.80;;;;;;5018042;28;20485;-78
2022/07/20 04:16:16;;;;;;;9.03;4.50;;;22.30;56.00;;;;;;5021541;28;20857;-79
2022/07/20 04:18:44;;;;;;;11.00;4.27;;;22.30;56.00;;;;;;5018207;28;20544;-78
2022/07/20 04:21:12;;;;;;;10.27;4.17;;;22.30;56.00;;;;;;5019597;28;20482;-79
2022/07/20 04:23:40;;;;;;;10.60;4.47;;;22.40;55.90;;;;;;5024420;28;20923;-79
2022/07/20 04:26:08;;;;;;;8.03;4.30;;;22.40;56.00;;;;;;5009604;28;20619;-78
2022/07/20 04:28:36;;;;;;;7.70;4.50;;;22.40;55.90;;;;;;5003616;28;20463;-78
2022/07/20 04:31:06;;;;;;;7.13;4.27;;;22.50;56.00;;;;;;5005310;28;21150;-78
2022/07/20 04:33:34;;;;;;;10.43;4.20;;;22.50;55.90;;;;;;5022063;28;20578;-78
2022/07/20 04:36:02;;;;;;;9.60;4.03;;;22.60;55.80;;;;;;5020476;28;20529;-80
2022/07/20 04:38:30;;;;;;;9.37;4.37;;;22.60;55.90;;;;;;5021212;28;21079;-79
2022/07/20 04:40:58;;;;;;;9.70;4.70;;;22.70;55.90;;;;;;5015779;28;20471;-77
2022/07/20 04:43:26;;;;;;;11.20;4.90;;;22.80;55.90;;;;;;5019005;28;20923;-77
2022/07/20 04:45:54;;;;;;;8.83;4.20;;;22.80;56.00;;;;;;5024082;28;20477;-77
2022/07/20 04:48:26;;;;;;;9.90;4.30;;;22.90;56.00;;;;;;5021023;28;20495;-78
2022/07/20 04:50:54;;;;;;;11.57;4.47;;;23.00;56.00;;;;;;5023204;28;20477;-78
2022/07/20 04:53:22;;;;;;;8.03;4.90;;;23.20;56.00;;;;;;5021688;28;20482;-77
2022/07/20 04:55:50;;;;;;;8.10;3.90;;;23.30;56.10;;;;;;5022499;28;20482;-78
2022/07/20 04:58:18;;;;;;;11.60;4.20;;;23.50;56.20;;;;;;5023157;28;20479;-78
2022/07/20 05:00:46;;;;;;;7.33;3.80;;;23.70;56.10;;;;;;5020851;28;20843;-78
2022/07/20 05:03:14;;;;;;;8.77;4.47;;;23.80;56.00;;;;;;5022684;28;20454;-79
2022/07/20 05:05:43;;;;;;;11.27;4.93;;;23.90;55.90;;;;;;5019442;28;20488;-79
2022/07/20 05:08:15;;;;;;;10.20;4.43;;;24.00;55.80;;;;;;5024399;28;20465;-80
2022/07/20 05:10:43;;;;;;;8.80;4.40;;;24.10;55.70;;;;;;5025485;28;20475;-79
2022/07/20 05:13:11;;;;;;;9.73;5.20;;;24.30;55.60;;;;;;5022463;28;20456;-79
2022/07/20 05:15:39;;;;;;;6.73;4.40;;;24.40;55.60;;;;;;5018471;28;20828;-79
2022/07/20 05:18:07;;;;;;;6.93;4.33;;;24.60;55.40;;;;;;5024303;28;20561;-79
2022/07/20 05:20:35;;;;;;;9.80;4.60;;;24.80;55.50;;;;;;5025111;28;20484;-79
2022/07/20 05:23:04;;;;;;;6.90;3.97;;;25.10;55.40;;;;;;5022618;28;20483;-79
2022/07/20 05:25:33;;;;;;;7.63;4.27;;;25.20;55.10;;;;;;5023880;28;20477;-80
2022/07/20 05:28:01;;;;;;;12.33;4.67;;;25.30;55.00;;;;;;5025057;28;20553;-80
2022/07/20 05:30:29;;;;;;;7.87;3.67;;;25.40;55.20;;;;;;5024254;28;20478;-78
2022/07/20 05:32:58;;;;;;;10.57;3.93;;;25.50;55.40;;;;;;5020172;28;20475;-79
2022/07/20 05:35:26;;;;;;;10.17;4.70;;;25.90;55.60;;;;;;5019374;28;20489;-79
2022/07/20 05:37:54;;;;;;;10.67;5.57;;;26.50;55.20;;;;;;5010523;28;20467;-78
2022/07/20 05:40:23;;;;;;;9.40;4.80;;;27.60;54.20;;;;;;5022446;28;20509;-79
2022/07/20 05:42:52;;;;;;;9.10;4.97;;;28.90;52.60;;;;;;5025115;28;20475;-78
2022/07/20 05:45:20;;;;;;;14.50;5.13;;;30.00;51.10;;;;;;5029234;28;20459;-79
2022/07/20 05:47:48;;;;;;;19.23;5.60;;;31.20;49.80;;;;;;5022943;28;20472;-79
2022/07/20 05:50:16;;;;;;;16.23;5.70;;;32.10;48.70;;;;;;5022530;28;20855;-79
2022/07/20 05:52:44;;;;;;;14.70;5.60;;;32.80;47.80;;;;;;5021870;28;20462;-79
2022/07/20 05:55:12;;;;;;;12.77;5.10;;;33.40;47.00;;;;;;5022011;28;20489;-79
2022/07/20 05:57:41;;;;;;;10.27;4.50;;;33.90;46.40;;;;;;5020327;28;20514;-80
2022/07/20 06:00:10;;;;;;;9.40;4.90;;;34.40;45.80;;;;;;5020199;28;20478;-80
2022/07/20 06:02:38;;;;;;;9.40;4.87;;;34.80;45.10;;;;;;5021453;28;20463;-79
2022/07/20 06:05:06;;;;;;;9.07;4.90;;;35.20;44.80;;;;;;5020374;28;20456;-80
2022/07/20 06:07:34;;;;;;;11.07;4.87;;;35.60;44.20;;;;;;5019256;28;20567;-79
2022/07/20 06:10:08;;;;;;;12.83;4.80;;;36.00;43.60;;;;;;5021325;28;20468;-80
2022/07/20 06:12:36;;;;;;;9.17;5.30;;;36.30;43.10;;;;;;5024842;28;20471;-80
2022/07/20 06:15:07;;;;;;;10.23;4.97;;;36.50;42.40;;;;;;5023154;28;21254;-80
2022/07/20 06:17:36;;;;;;;9.43;5.33;;;36.80;42.00;;;;;;5024329;28;20460;-80
2022/07/20 06:20:07;;;;;;;10.40;4.77;;;36.90;41.50;;;;;;5022193;28;20468;-79
2022/07/20 06:22:36;;;;;;;9.10;4.40;;;36.80;41.40;;;;;;5012059;28;20879;-80
2022/07/20 06:25:05;;;;;;;7.03;4.30;;;36.30;41.80;;;;;;4997499;28;20463;-80
2022/07/20 06:27:33;;;;;;;8.50;4.67;;;35.70;42.10;;;;;;5024360;28;20480;-80
2022/07/20 06:30:01;;;;;;;10.93;5.00;;;35.00;42.20;;;;;;5024130;28;20442;-79
2022/07/20 06:32:31;;;;;;;9.23;4.27;;;34.10;42.50;;;;;;5030003;28;20462;-80
2022/07/20 06:34:59;;;;;;;7.77;4.47;;;33.20;43.10;;;;;;5023265;28;20486;-79
2022/07/20 06:37:27;;;;;;;6.97;4.40;;;32.20;43.80;;;;;;5023941;28;20563;-80
2022/07/20 06:39:56;;;;;;;8.33;4.53;;;31.40;44.60;;;;;;5021009;28;20467;-80
2022/07/20 06:42:24;;;;;;;8.27;5.00;;;30.70;45.30;;;;;;5023601;28;20465;-79
2022/07/20 06:44:52;;;;;;;8.87;3.67;;;30.10;46.00;;;;;;5021435;28;20450;-80
2022/07/20 06:47:19;;;;;;;9.10;4.60;;;29.70;46.60;;;;;;5016069;28;20488;-80
2022/07/20 06:49:49;;;;;;;8.50;4.80;;;29.40;47.10;;;;;;5021671;28;21013;-79
2022/07/20 06:52:17;;;;;;;11.30;4.63;;;29.10;47.50;;;;;;5018392;28;20462;-80
2022/07/20 06:54:46;;;;;;;7.83;4.63;;;28.90;47.90;;;;;;5023253;28;20524;-80
2022/07/20 06:57:14;;;;;;;9.77;4.80;;;28.70;48.30;;;;;;5020410;28;20471;-80
2022/07/20 06:59:42;;;;;;;10.23;3.60;;;28.60;48.60;;;;;;5023301;28;20467;-80
2022/07/20 07:02:10;;;;;;;8.97;3.90;;;28.50;48.80;;;;;;5023032;28;20472;-80
2022/07/20 07:04:39;;;;;;;10.07;4.60;;;28.50;49.00;;;;;;5024571;28;20455;-80
2022/07/20 07:07:08;;;;;;;6.60;3.53;;;28.40;49.10;;;;;;5026174;28;20482;-80
2022/07/20 07:09:36;;;;;;;9.20;3.47;;;28.50;49.00;;;;;;5024941;28;20463;-80
2022/07/20 07:12:08;;;;;;;9.53;3.70;;;28.50;49.00;;;;;;5025000;28;21572;-80
2022/07/20 07:14:36;;;;;;;8.87;3.60;;;28.50;49.00;;;;;;5025407;28;21014;-80
2022/07/20 07:17:05;;;;;;;8.00;3.77;;;28.50;49.00;;;;;;5027470;28;20490;-80
2022/07/20 07:19:33;;;;;;;12.27;4.43;;;28.60;48.90;;;;;;5023953;28;20549;-80
2022/07/20 07:22:01;;;;;;;6.07;3.40;;;28.60;48.80;;;;;;5025002;28;20477;-80
2022/07/20 07:24:30;;;;;;;8.23;3.70;;;28.60;48.90;;;;;;5031348;28;20900;-80
2022/07/20 07:26:58;;;;;;;9.80;3.40;;;28.60;48.90;;;;;;5031858;28;20477;-80
2022/07/20 07:29:27;;;;;;;7.70;3.90;;;28.70;48.90;;;;;;5034143;28;20441;-80
2022/07/20 07:31:58;;;;;;;7.60;3.23;;;28.70;48.90;;;;;;5029897;28;20482;-80
2022/07/20 07:34:27;;;;;;;11.60;3.40;;;28.80;48.90;;;;;;5030360;28;20460;-80
2022/07/20 07:36:56;;;;;;;6.37;3.10;;;28.80;49.00;;;;;;5005938;28;21188;-80
2022/07/20 07:39:24;;;;;;;8.50;3.80;;;28.80;49.00;;;;;;5025308;28;20467;-80
2022/07/20 07:41:54;;;;;;;8.57;4.10;;;28.90;49.00;;;;;;5019215;28;20466;-80
2022/07/20 07:44:22;;;;;;;14.37;4.17;;;28.90;49.10;;;;;;5020978;28;20490;-80
2022/07/20 07:46:50;;;;;;;10.30;3.83;;;29.00;49.10;;;;;;5020104;28;20496;-79
2022/07/20 07:49:18;;;;;;;7.27;3.80;;;29.00;49.10;;;;;;5033787;28;20477;-79
2022/07/20 07:51:46;;;;;;;9.30;3.93;;;29.00;49.10;;;;;;5021111;28;21035;-79
2022/07/20 07:54:14;;;;;;;10.53;3.83;;;29.10;49.20;;;;;;5022845;28;20455;-79
2022/07/20 07:56:42;;;;;;;7.67;4.30;;;29.10;49.20;;;;;;5020928;28;20498;-79
2022/07/20 07:59:11;;;;;;;7.43;4.10;;;29.20;49.20;;;;;;5023254;28;20459;-79
2022/07/20 08:01:59;;;;;;;10.70;3.87;;;29.20;49.20;;;;;;5013689;28;20902;-80
2022/07/20 08:04:27;;;;;;;13.13;4.60;;;29.30;49.30;;;;;;5017946;28;20465;-80
2022/07/20 08:06:55;;;;;;;6.50;3.93;;;29.30;49.30;;;;;;5020297;28;20495;-80
2022/07/20 08:09:23;;;;;;;16.27;3.87;;;29.40;49.40;;;;;;5008074;28;20863;-80
2022/07/20 08:11:51;;;;;;;7.17;3.87;;;29.40;49.40;;;;;;5022412;28;21289;-80
2022/07/20 08:14:20;;;;;;;9.53;4.27;;;29.50;49.40;;;;;;5026754;28;20457;-80
2022/07/20 08:16:48;;;;;;;7.27;4.57;;;29.50;49.30;;;;;;5024159;28;20479;-80
2022/07/20 08:19:16;;;;;;;14.63;4.50;;;29.60;49.30;;;;;;5024721;28;20455;-80
2022/07/20 08:21:44;;;;;;;27.13;5.07;;;29.60;49.50;;;;;;5021110;28;20464;-80
2022/07/20 08:24:14;;;;;;;6.83;3.90;;;29.60;49.60;;;;;;5026314;28;20456;-80
2022/07/20 08:26:42;;;;;;;7.67;4.20;;;29.60;49.60;;;;;;5025898;28;20565;-80
2022/07/20 08:29:10;;;;;;;9.37;3.80;;;29.70;49.60;;;;;;5026210;28;20460;-80
2022/07/20 08:31:41;;;;;;;10.13;4.20;;;29.70;49.60;;;;;;5026175;28;21053;-80
2022/07/20 08:34:09;;;;;;;12.83;4.53;;;29.70;49.50;;;;;;5022735;28;20461;-79
2022/07/20 08:36:37;;;;;;;14.43;4.47;;;29.80;49.60;;;;;;5026741;28;20492;-80
2022/07/20 08:39:06;;;;;;;9.80;4.60;;;29.80;49.60;;;;;;5023729;28;20451;-80
2022/07/20 08:41:34;;;;;;;11.77;3.90;;;29.80;49.60;;;;;;5026195;28;20510;-80
2022/07/20 08:44:04;;;;;;;6.50;3.60;;;29.80;49.60;;;;;;5022279;28;20493;-80
2022/07/20 08:46:42;;;;;;;7.80;4.67;;;29.80;49.70;;;;;;5023735;28;20509;-80
2022/07/20 08:49:12;;;;;;;7.50;4.20;;;29.90;49.70;;;;;;5020030;28;20464;-79
2022/07/20 08:51:41;;;;;;;7.20;4.43;;;29.90;49.70;;;;;;5024331;28;20469;-80
2022/07/20 08:54:09;;;;;;;9.50;4.07;;;29.90;49.70;;;;;;5030201;28;20467;-79
2022/07/20 08:56:36;;;;;;;8.00;4.30;;;30.00;49.70;;;;;;5026719;28;20485;-80
2022/07/20 08:59:04;;;;;;;9.63;4.73;;;30.00;49.70;;;;;;5026687;28;20998;-80
2022/07/20 09:01:32;;;;;;;9.80;4.97;;;30.00;49.70;;;;;;5022842;28;20593;-80
2022/07/20 09:04:08;;;;;;;8.20;5.00;;;30.10;49.80;;;;;;5027566;28;20448;-80
2022/07/20 09:06:47;;;;;;;9.63;4.50;;;30.10;49.70;;;;;;5024830;28;20473;-80
2022/07/20 09:09:16;;;;;;;12.67;5.10;;;30.20;49.70;;;;;;5025456;28;20829;-79
2022/07/20 09:11:45;;;;;;;10.13;4.60;;;30.20;49.70;;;;;;5022686;28;21272;-80
2022/07/20 09:14:16;;;;;;;7.40;4.30;;;30.20;49.70;;;;;;5025007;28;20529;-80
2022/07/20 09:16:46;;;;;;;8.50;5.00;;;30.30;49.80;;;;;;5023292;28;20484;-80
2022/07/20 09:19:17;;;;;;;8.97;5.13;;;30.30;49.80;;;;;;5012197;28;20451;-80
2022/07/20 09:21:48;;;;;;;8.80;5.07;;;30.40;49.80;;;;;;5024402;28;20509;-80
2022/07/20 09:24:19;;;;;;;8.27;4.70;;;30.50;49.80;;;;;;5016214;28;20469;-80
2022/07/20 09:27:04;;;;;;;10.87;4.90;;;30.50;49.60;;;;;;5017401;28;20488;-80
2022/07/20 09:29:32;;;;;;;11.60;4.70;;;30.60;49.60;;;;;;5019203;28;20471;-80
2022/07/20 09:32:03;;;;;;;12.20;5.10;;;30.60;49.50;;;;;;5023642;28;21250;-80
2022/07/20 09:34:36;;;;;;;10.27;5.20;;;30.70;49.60;;;;;;5024796;28;20474;-80
2022/07/20 09:37:16;;;;;;;9.27;4.80;;;30.80;49.50;;;;;;5016091;28;20501;-79
2022/07/20 09:40:00;;;;;;;9.00;5.30;;;30.80;49.40;;;;;;5023942;28;20548;-80
2022/07/20 09:42:37;;;;;;;9.87;5.50;;;30.80;49.40;;;;;;5023265;28;20478;-80
2022/07/20 09:45:25;;;;;;;8.93;4.83;;;30.80;49.50;;;;;;5024398;28;20458;-80
2022/07/20 09:48:10;;;;;;;12.03;4.80;;;30.90;49.40;;;;;;5027933;28;20512;-80
2022/07/20 09:50:41;;;;;;;8.43;6.00;;;31.00;49.30;;;;;;5023949;28;20480;-80
2022/07/20 09:53:11;;;;;;;11.47;5.17;;;31.10;49.20;;;;;;5022207;28;20479;-80
2022/07/20 09:55:40;;;;;;;7.90;5.00;;;31.10;49.30;;;;;;5025333;28;20455;-80
2022/07/20 09:58:08;;;;;;;8.67;4.87;;;31.20;49.20;;;;;;5023553;28;20455;-80
2022/07/20 10:00:38;;;;;;;10.70;5.57;;;31.20;49.10;;;;;;5024616;28;20487;-80
2022/07/20 10:03:15;;;;;;;12.43;4.67;;;31.20;49.10;;;;;;5021659;28;20539;-80
2022/07/20 10:05:45;;;;;;;12.90;4.90;;;31.30;49.00;;;;;;5021881;28;20475;-79
2022/07/20 10:08:14;;;;;;;7.43;4.90;;;31.30;49.00;;;;;;5017612;28;20457;-80
2022/07/20 10:10:42;;;;;;;9.97;4.70;;;31.40;48.90;;;;;;5024851;28;20475;-80
2022/07/20 10:13:11;;;;;;;9.30;5.27;;;31.40;48.80;;;;;;5022492;28;20457;-80
2022/07/20 10:16:01;;;;;;;9.13;4.90;;;31.50;48.80;;;;;;5020752;28;20468;-80
2022/07/20 10:18:30;;;;;;;12.10;5.20;;;31.60;48.70;;;;;;5022531;28;20836;-79
2022/07/20 10:20:59;;;;;;;8.90;5.00;;;31.60;48.60;;;;;;5021585;28;20479;-79
2022/07/20 10:23:29;;;;;;;7.43;4.47;;;31.70;48.50;;;;;;5018055;28;20465;-79
2022/07/20 10:25:58;;;;;;;9.20;4.57;;;31.80;48.20;;;;;;5008294;28;20476;-80
2022/07/20 10:28:32;;;;;;;10.23;5.00;;;31.90;48.00;;;;;;5006531;28;20453;-79
2022/07/20 10:31:04;;;;;;;6.70;4.17;;;32.00;47.70;;;;;;5019127;28;20495;-79
2022/07/20 10:33:34;;;;;;;9.53;4.80;;;32.10;47.60;;;;;;5020123;28;20551;-80
2022/07/20 10:39:34;;;;;;;12.33;5.10;;;32.10;47.40;;;;;;5002560;28;20476;-79
2022/07/20 10:42:26;;;;;;;8.10;4.30;;;32.10;47.30;;;;;;5006342;28;21068;-80
2022/07/20 10:44:54;;;;;;;10.40;5.07;;;32.20;47.20;;;;;;5011539;28;20466;-79
2022/07/20 10:47:43;;;;;;;7.10;4.23;;;32.10;47.10;;;;;;5023698;28;20473;-79
2022/07/20 10:50:18;;;;;;;8.03;4.30;;;32.20;47.10;;;;;;5022386;28;20472;-79
2022/07/20 10:52:47;;;;;;;10.47;4.33;;;32.20;47.00;;;;;;5022565;28;20456;-80
2022/07/20 10:55:50;;;;;;;12.13;4.40;;;32.30;46.70;;;;;;5026436;28;20977;-79
2022/07/20 10:58:21;;;;;;;12.83;4.77;;;32.30;46.60;;;;;;5020823;28;20484;-79
2022/07/20 11:00:51;;;;;;;11.23;4.40;;;32.30;46.10;;;;;;5017487;28;20855;-80
2022/07/20 11:03:21;;;;;;;12.40;4.53;;;32.30;45.70;;;;;;5018366;28;20480;-79
2022/07/20 11:06:00;;;;;;;8.17;4.20;;;32.40;45.70;;;;;;5017383;28;21075;-79
2022/07/20 11:08:30;;;;;;;7.37;4.83;;;32.40;45.60;;;;;;5021195;28;20452;-79
2022/07/20 11:10:58;;;;;;;8.10;4.43;;;32.40;45.50;;;;;;5007087;28;20514;-79
2022/07/20 11:13:26;;;;;;;7.40;3.93;;;32.40;45.30;;;;;;5018557;28;20464;-80
2022/07/20 11:15:58;;;;;;;6.73;3.13;;;32.50;44.90;;;;;;5010108;28;20492;-80
2022/07/20 11:18:33;;;;;;;9.33;4.17;;;32.50;44.40;;;;;;5014709;28;20857;-80
2022/07/20 11:21:04;;;;;;;9.67;4.13;;;32.60;44.40;;;;;;5022449;28;20488;-79
2022/07/20 11:23:42;;;;;;;9.00;3.77;;;32.60;44.20;;;;;;5020185;28;20460;-80
2022/07/20 11:26:11;;;;;;;9.10;4.17;;;32.70;43.80;;;;;;5023336;28;21175;-79
2022/07/20 11:28:44;;;;;;;10.63;4.50;;;32.80;43.50;;;;;;5002188;28;20901;-80
2022/07/20 11:31:15;;;;;;;7.10;3.60;;;32.80;43.30;;;;;;5020247;28;20503;-79
2022/07/20 11:33:47;;;;;;;9.63;4.27;;;32.90;43.20;;;;;;5019900;28;20478;-80
2022/07/20 11:36:16;;;;;;;8.50;3.77;;;32.90;42.90;;;;;;5021781;28;20487;-80
2022/07/20 11:38:47;;;;;;;16.40;5.30;;;32.90;42.80;;;;;;5020873;28;20491;-79
2022/07/20 11:41:18;;;;;;;7.57;3.67;;;33.00;42.70;;;;;;5018151;28;20459;-80
2022/07/20 11:43:49;;;;;;;6.77;3.80;;;33.00;42.50;;;;;;5021874;28;20829;-79
2022/07/20 11:46:19;;;;;;;13.37;4.33;;;32.90;42.20;;;;;;5003036;28;20503;-79
2022/07/20 11:48:53;;;;;;;8.80;4.00;;;32.90;42.20;;;;;;5020851;28;20456;-79
2022/07/20 11:51:50;;;;;;;6.30;3.20;;;33.00;41.90;;;;;;5017647;28;20940;-79
2022/07/20 11:54:22;;;;;;;7.70;4.30;;;33.10;41.70;;;;;;5000708;28;20453;-79
2022/07/20 11:56:51;;;;;;;8.17;4.10;;;33.10;41.80;;;;;;5021115;28;20580;-80
2022/07/20 11:59:20;;;;;;;7.37;4.30;;;33.10;41.80;;;;;;5022756;28;20491;-80
2022/07/20 12:01:50;;;;;;;7.83;4.13;;;33.20;41.90;;;;;;5024701;28;20481;-80
2022/07/20 12:04:19;;;;;;;10.60;4.17;;;33.20;41.90;;;;;;5025044;28;20533;-79
2022/07/20 12:06:51;;;;;;;10.17;6.50;;;33.20;41.80;;;;;;5022075;28;20483;-79
2022/07/20 12:09:22;;;;;;;12.73;6.70;;;33.30;41.80;;;;;;5024203;28;20460;-79
2022/07/20 12:11:56;;;;;;;8.80;5.00;;;33.40;41.50;;;;;;5024691;28;20477;-79
2022/07/20 12:14:29;;;;;;;7.00;3.80;;;33.40;41.30;;;;;;5022510;28;20471;-79
2022/07/20 12:17:19;;;;;;;8.70;3.80;;;33.50;41.30;;;;;;5022194;28;20491;-80
2022/07/20 12:19:50;;;;;;;9.73;3.90;;;33.60;40.90;;;;;;5027034;28;20460;-79
2022/07/20 12:22:20;;;;;;;8.60;4.00;;;33.70;40.80;;;;;;5021983;28;20452;-79
2022/07/20 12:24:54;;;;;;;7.37;3.50;;;33.70;40.60;;;;;;5010401;28;20828;-79
2022/07/20 12:27:23;;;;;;;9.30;4.20;;;33.80;40.50;;;;;;5013426;28;20485;-79
2022/07/20 12:29:52;;;;;;;7.10;4.20;;;33.80;40.40;;;;;;5022337;28;20534;-79
2022/07/20 12:32:31;;;;;;;8.93;4.70;;;33.80;40.40;;;;;;5026200;28;20484;-79
2022/07/20 12:35:00;;;;;;;6.60;3.50;;;33.80;40.30;;;;;;5024044;28;20502;-78
2022/07/20 12:37:47;;;;;;;9.07;4.30;;;33.80;40.30;;;;;;5022344;28;21189;-78
2022/07/20 12:40:37;;;;;;;7.90;3.60;;;33.80;40.10;;;;;;5022717;28;20430;-79
2022/07/20 12:43:06;;;;;;;9.73;3.90;;;33.70;40.00;;;;;;5022145;28;20452;-79
2022/07/20 12:45:34;;;;;;;8.07;4.00;;;33.70;40.20;;;;;;5024840;28;20500;-79
2022/07/20 12:48:02;;;;;;;7.87;3.90;;;33.60;40.20;;;;;;4999723;28;20490;-78
2022/07/20 12:50:35;;;;;;;7.30;4.37;;;33.70;40.20;;;;;;5018696;28;20559;-79
2022/07/20 12:53:03;;;;;;;8.83;3.70;;;33.70;39.90;;;;;;5020538;28;20468;-79
2022/07/20 12:55:31;;;;;;;6.23;3.30;;;33.90;39.90;;;;;;5022561;28;20566;-79
2022/07/20 12:58:01;;;;;;;10.40;4.20;;;34.00;39.90;;;;;;5006950;28;21380;-79
2022/07/20 13:00:29;;;;;;;7.73;3.57;;;34.00;39.90;;;;;;5022121;28;20461;-79
2022/07/20 13:02:57;;;;;;;8.43;3.73;;;34.10;39.90;;;;;;5025138;28;20454;-79